Time;durP1;ratioP1;P1;durP2;ratioP2;P2;SDS_P1;SDS_P2;PMS_P1;PMS_P2;Temp;Humidity;BMP_temperature;BMP_pressure;BME280_temperature;BME280_humidity;BME280_pressure;Samples;Min_cycle;Max_cycle;Signal;HPM_P1;HPM_P2
2021/08/30 00:00:38;;;;;;;9.45;6.65;;;;;;;22.82;80.94;99730.63;5030839;28;20032;-68
2021/08/30 00:03:03;;;;;;;9.27;6.60;;;;;;;23.07;82.19;99770.38;5031117;28;20454;-62
2021/08/30 00:05:29;;;;;;;9.57;6.88;;;;;;;22.61;82.03;99732.91;5031571;28;20471;-67
2021/08/30 00:07:54;;;;;;;8.52;6.72;;;;;;;22.94;82.69;99780.34;5031135;28;20028;-66
2021/08/30 00:10:20;;;;;;;9.05;6.38;;;;;;;23.06;81.94;99769.50;5031471;28;20510;-65
2021/08/30 00:12:45;;;;;;;7.90;6.72;;;;;;;22.90;81.46;99732.19;5031506;28;20035;-69
2021/08/30 00:15:13;;;;;;;10.65;7.20;;;;;;;22.96;82.22;99767.16;5031311;28;20419;-68
2021/08/30 00:17:38;;;;;;;10.23;7.88;;;;;;;22.75;82.84;99767.66;5031465;28;20040;-65
2021/08/30 00:20:14;;;;;;;11.93;7.60;;;;;;;22.68;83.49;99765.19;5031390;28;20025;-66
2021/08/30 00:22:42;;;;;;;9.95;7.78;;;;;;;22.73;83.70;99761.56;5031488;28;20025;-65
2021/08/30 00:25:08;;;;;;;11.70;7.97;;;;;;;22.21;85.00;99729.44;5030520;28;20049;-65
2021/08/30 00:27:34;;;;;;;12.80;8.77;;;;;;;22.34;84.86;99758.09;5031316;28;20017;-68
2021/08/30 00:29:59;;;;;;;12.57;9.43;;;;;;;22.51;84.35;99768.25;5031025;28;20036;-65
2021/08/30 00:32:25;;;;;;;10.30;8.07;;;;;;;22.62;84.09;99774.13;5031462;28;20025;-66
2021/08/30 00:34:51;;;;;;;11.48;8.45;;;;;;;22.63;84.43;99770.59;5031482;28;20025;-67
2021/08/30 00:37:16;;;;;;;12.07;8.82;;;;;;;22.52;85.27;99762.94;5031590;28;20033;-68
2021/08/30 00:39:41;;;;;;;10.70;8.57;;;;;;;22.72;83.79;99767.72;5030805;28;20045;-69
2021/08/30 00:42:07;;;;;;;12.50;8.60;;;;;;;22.82;83.48;99770.13;5031234;28;20029;-64
2021/08/30 00:44:33;;;;;;;9.90;8.35;;;;;;;22.62;83.83;99768.84;5030774;28;20040;-65
2021/08/30 00:46:59;;;;;;;9.93;8.27;;;;;;;22.55;84.79;99775.16;5031164;28;20030;-65
2021/08/30 00:49:24;;;;;;;11.68;7.68;;;;;;;22.78;83.65;99767.56;5031296;28;20025;-69
2021/08/30 00:51:50;;;;;;;9.00;7.55;;;;;;;22.96;82.82;99773.28;5028716;28;20117;-66
2021/08/30 00:54:16;;;;;;;10.82;7.53;;;;;;;23.06;82.49;99777.41;5031298;28;20499;-65
2021/08/30 00:56:42;;;;;;;8.98;6.80;;;;;;;23.02;81.95;99754.69;5025173;28;20108;-66
2021/08/30 00:59:09;;;;;;;8.13;7.18;;;;;;;23.17;81.68;99779.78;5030828;28;20503;-65
2021/08/30 01:01:35;;;;;;;8.23;6.60;;;;;;;23.32;80.97;99783.78;5031117;28;20026;-67
2021/08/30 01:04:01;;;;;;;8.05;7.25;;;;;;;23.18;80.34;99730.59;5031347;28;20060;-70
2021/08/30 01:07:03;;;;;;;10.82;7.72;;;;;;;23.28;80.56;99779.50;5031328;28;20090;-67
2021/08/30 01:09:51;;;;;;;9.95;7.25;;;;;;;22.97;81.72;99776.75;5029659;28;20488;-69
2021/08/30 01:12:30;;;;;;;11.02;7.45;;;;;;;22.74;82.95;99770.31;5031040;28;20025;-67
2021/08/30 01:15:01;;;;;;;7.60;6.80;;;;;;;22.69;83.24;99786.22;5029626;28;20034;-67
2021/08/30 01:17:30;;;;;;;8.90;8.00;;;;;;;22.39;83.73;99736.09;5030957;28;20022;-67
2021/08/30 01:20:28;;;;;;;9.55;7.00;;;;;;;22.67;84.08;99779.25;5029295;28;20029;-66
2021/08/30 01:22:56;;;;;;;9.48;7.13;;;;;;;22.71;83.39;99760.72;5031135;28;20502;-65
2021/08/30 01:25:23;;;;;;;9.10;7.95;;;;;;;22.68;83.68;99760.81;5030962;28;20046;-69
2021/08/30 01:27:51;;;;;;;11.63;7.72;;;;;;;22.72;83.91;99766.88;5030687;28;20095;-65
2021/08/30 01:30:22;;;;;;;9.90;7.97;;;;;;;22.76;84.08;99771.16;5030816;28;20028;-68
2021/08/30 01:32:56;;;;;;;11.00;8.00;;;;;;;22.78;84.06;99767.56;5030961;28;20040;-67
2021/08/30 01:35:24;;;;;;;11.35;8.18;;;;;;;22.87;83.78;99765.63;5030724;28;20039;-65
2021/08/30 01:37:51;;;;;;;12.75;8.15;;;;;;;;;;5033064;28;20025;-66
2021/08/30 01:40:19;;;;;;;9.57;8.30;;;;;;;22.87;83.28;99757.72;5034359;28;20084;-66
2021/08/30 01:42:49;;;;;;;11.27;8.07;;;;;;;22.76;83.64;99764.09;5034217;28;20060;-65
2021/08/30 01:45:19;;;;;;;11.38;9.75;;;;;;;22.46;85.25;99765.72;5034307;28;20395;-65
2021/08/30 01:47:45;;;;;;;20.98;10.95;;;;;;;22.12;87.37;99771.72;5034341;28;20041;-65
2021/08/30 01:50:15;;;;;;;14.95;10.98;;;;;;;22.13;87.78;99768.16;5034447;28;20516;-65
2021/08/30 01:52:41;;;;;;;12.23;10.60;;;;;;;22.10;88.04;99774.34;5033037;28;20083;-66
2021/08/30 01:55:20;;;;;;;14.85;11.02;;;;;;;21.98;88.02;99778.13;5034234;28;20038;-66
2021/08/30 02:00:52;;;;;;;13.70;10.80;;;;;;;21.73;89.89;99780.41;5034335;28;20040;-65
2021/08/30 02:03:31;;;;;;;17.15;10.77;;;;;;;21.91;89.29;99779.16;5034021;28;20037;-66
2021/08/30 02:06:00;;;;;;;13.52;10.80;;;;;;;21.97;88.75;99786.91;5033848;28;20087;-65
2021/08/30 02:08:29;;;;;;;15.40;10.70;;;;;;;22.12;87.74;99793.59;5034016;28;20434;-66
2021/08/30 02:10:58;;;;;;;15.07;10.68;;;;;;;22.11;88.22;99793.66;5034010;28;20108;-66
2021/08/30 02:13:27;;;;;;;13.88;10.02;;;;;;;22.08;88.14;99797.22;5032800;28;20029;-65
2021/08/30 02:15:53;;;;;;;;;;;;;;;22.02;88.47;99799.97;5034031;28;20038;-66
2021/08/30 02:18:35;;;;;;;11.75;10.27;;;;;;;22.00;88.63;99798.28;5033466;28;19909;-66
2021/08/30 02:21:33;;;;;;;12.13;10.25;;;;;;;22.01;88.39;99802.59;5033792;28;20079;-65
2021/08/30 02:24:08;;;;;;;13.43;10.60;;;;;;;22.04;88.52;99790.25;5033729;28;20061;-66
2021/08/30 02:26:43;;;;;;;13.75;10.57;;;;;;;21.81;89.36;99796.88;5033294;28;20411;-65
2021/08/30 02:29:11;;;;;;;13.95;10.00;;;;;;;21.82;89.79;99781.97;5033842;28;20404;-66
2021/08/30 02:31:38;;;;;;;13.60;10.50;;;;;;;21.99;88.89;99786.88;5031797;28;20512;-66
2021/08/30 02:34:06;;;;;;;13.73;10.02;;;;;;;22.11;88.18;99791.00;5033511;28;20032;-66
2021/08/30 02:36:33;;;;;;;11.57;9.82;;;;;;;22.08;88.33;99799.84;5033467;28;20030;-65
2021/08/30 02:39:00;;;;;;;14.52;10.07;;;;;;;21.66;90.10;99799.81;5033077;28;20392;-65
2021/08/30 02:41:26;;;;;;;13.05;9.90;;;;;;;21.85;89.41;99784.53;5029093;28;20100;-67
2021/08/30 02:43:52;;;;;;;12.35;10.20;;;;;;;22.10;88.05;99784.88;5018857;28;20113;-65
2021/08/30 02:46:18;;;;;;;14.63;10.13;;;;;;;22.18;87.44;99794.38;5013403;28;20037;-69
2021/08/30 02:48:45;;;;;;;12.60;9.70;;;;;;;22.02;88.46;99799.06;5012422;28;20030;-65
2021/08/30 02:51:12;;;;;;;13.55;9.23;;;;;;;21.36;89.48;99770.59;5013368;28;20071;-66
2021/08/30 02:53:38;;;;;;;17.02;9.57;;;;;;;21.44;90.19;99808.03;5013284;28;20044;-65
2021/08/30 02:56:04;;;;;;;16.15;11.00;;;;;;;21.26;91.66;99811.00;5013410;28;20105;-66
2021/08/30 02:58:31;;;;;;;12.70;9.90;;;;;;;21.08;92.14;99814.81;5013409;28;20116;-65
2021/08/30 03:00:58;;;;;;;11.95;9.85;;;;;;;21.30;92.03;99818.81;5013527;28;20029;-65
2021/08/30 03:03:23;;;;;;;16.90;10.05;;;;;;;21.40;90.53;99819.50;5033186;28;20052;-66
2021/08/30 03:05:51;;;;;;;15.23;9.85;;;;;;;21.52;90.56;99818.44;5032828;28;20475;-66
2021/08/30 03:08:17;;;;;;;14.27;9.93;;;;;;;21.20;91.73;99825.13;5032663;28;20124;-65
2021/08/30 03:10:46;;;;;;;12.93;9.63;;;;;;;21.34;90.84;99803.88;5033140;28;20032;-66
2021/08/30 03:13:12;;;;;;;17.92;9.85;;;;;;;21.47;90.71;99826.38;5032799;28;20033;-65
2021/08/30 03:15:40;;;;;;;18.33;10.00;;;;;;;21.45;90.58;99836.03;5032585;28;20029;-67
2021/08/30 03:18:10;;;;;;;12.00;9.70;;;;;;;21.49;90.10;99839.47;5032666;28;20033;-65
2021/08/30 03:20:36;;;;;;;17.95;13.43;;;;;;;21.21;92.01;99844.34;5032980;28;20034;-67
2021/08/30 03:23:02;;;;;;;15.57;10.40;;;;;;;21.09;92.40;99851.53;5032391;28;20399;-68
2021/08/30 03:25:34;;;;;;;12.68;9.15;;;;;;;21.05;93.23;99849.88;5032484;28;20100;-67
2021/08/30 03:28:02;;;;;;;15.02;9.32;;;;;;;20.68;92.70;99813.66;5031261;28;20025;-66
2021/08/30 03:30:27;;;;;;;13.60;9.15;;;;;;;20.82;92.48;99822.25;5032528;28;20022;-65
2021/08/30 03:32:54;;;;;;;10.48;8.82;;;;;;;21.15;92.36;99854.06;4997702;28;20048;-66
2021/08/30 03:35:20;;;;;;;21.17;9.68;;;;;;;21.13;91.95;99863.75;5032256;28;20486;-65
2021/08/30 03:37:46;;;;;;;12.77;8.98;;;;;;;21.29;91.13;99863.47;5032452;28;20162;-66
2021/08/30 03:40:14;;;;;;;13.02;8.20;;;;;;;21.06;91.61;99872.59;5032082;28;20065;-65
2021/08/30 03:42:42;;;;;;;12.85;8.85;;;;;;;21.04;92.00;99873.50;5029907;28;20476;-65
2021/08/30 03:45:10;;;;;;;9.57;8.35;;;;;;;21.26;91.03;99882.78;5031867;28;20028;-65
2021/08/30 03:47:37;;;;;;;12.57;8.77;;;;;;;21.44;90.34;99878.94;5031820;28;20030;-66
2021/08/30 03:50:04;;;;;;;13.07;8.30;;;;;;;21.60;89.31;99881.34;5032439;28;20052;-66
2021/08/30 03:52:32;;;;;;;9.13;7.60;;;;;;;21.57;88.49;99890.16;5014184;28;20037;-66
2021/08/30 03:54:58;;;;;;;10.45;7.60;;;;;;;21.49;89.32;99890.25;5013860;28;20038;-66
2021/08/30 03:57:26;;;;;;;9.25;7.68;;;;;;;21.69;88.58;99891.69;5023521;28;20174;-66
2021/08/30 03:59:56;;;;;;;9.13;6.88;;;;;;;21.79;87.55;99887.13;5026025;28;20029;-66
2021/08/30 04:02:25;;;;;;;11.65;7.47;;;;;;;21.52;88.47;99896.34;5020430;28;20476;-66
2021/08/30 04:04:51;;;;;;;9.95;7.40;;;;;;;21.43;88.67;99903.50;5019774;28;20029;-65
2021/08/30 04:07:19;;;;;;;13.65;7.22;;;;;;;21.05;90.28;99894.47;5012165;28;20030;-65
2021/08/30 04:09:44;;;;;;;10.80;7.65;;;;;;;20.88;92.01;99894.72;5012081;28;20030;-66
2021/08/30 04:12:11;;;;;;;12.48;7.07;;;;;;;21.11;89.34;99890.88;5011883;28;20030;-66
2021/08/30 04:14:38;;;;;;;12.48;6.15;;;;;;;20.71;90.01;99859.97;5014790;28;20415;-66
2021/08/30 04:17:03;;;;;;;7.85;5.70;;;;;;;20.90;90.03;99889.44;5011653;28;20022;-63
2021/08/30 04:19:29;;;;;;;9.50;5.53;;;;;;;20.94;88.85;99899.03;5012217;28;20033;-65
2021/08/30 04:21:54;;;;;;;6.53;4.93;;;;;;;20.82;87.74;99879.06;5012039;28;20018;-64
2021/08/30 04:24:20;;;;;;;5.72;4.28;;;;;;;20.82;87.43;99902.69;5011552;28;20050;-65
2021/08/30 04:26:45;;;;;;;8.02;4.07;;;;;;;21.02;86.21;99907.63;5011460;28;20033;-64
2021/08/30 04:29:12;;;;;;;7.97;4.80;;;;;;;20.82;86.33;99907.94;5011513;28;20041;-65
2021/08/30 04:31:38;;;;;;;8.45;4.47;;;;;;;20.80;86.91;99910.59;5011625;28;20026;-65
2021/08/30 04:34:03;;;;;;;7.75;3.97;;;;;;;20.97;85.73;99914.72;5012059;28;20026;-65
2021/08/30 04:36:29;;;;;;;5.20;4.40;;;;;;;20.80;85.91;99886.97;5011985;28;20396;-70
2021/08/30 04:38:55;;;;;;;7.07;3.55;;;;;;;20.57;84.79;99858.41;5011631;28;20033;-65
2021/08/30 04:41:20;;;;;;;5.95;3.83;;;;;;;21.11;84.41;99925.88;5011515;28;20032;-66
2021/08/30 04:43:46;;;;;;;6.63;3.97;;;;;;;21.28;84.27;99940.50;5025511;28;20022;-65
2021/08/30 04:46:12;;;;;;;11.77;4.00;;;;;;;21.27;84.00;99944.00;5031341;28;20464;-65
2021/08/30 04:48:38;;;;;;;14.57;4.82;;;;;;;21.42;85.18;99956.03;5031550;28;20025;-65
2021/08/30 04:51:03;;;;;;;6.20;4.90;;;;;;;21.18;85.51;99916.13;5031614;28;20396;-65
2021/08/30 04:53:29;;;;;;;8.57;5.28;;;;;;;21.24;85.75;99934.41;5031367;28;20450;-66
2021/08/30 04:55:55;;;;;;;10.95;5.22;;;;;;;21.45;86.00;99946.34;5031466;28;20516;-65
2021/08/30 04:58:20;;;;;;;10.02;5.05;;;;;;;21.37;84.51;99963.09;5031292;28;20026;-65
2021/08/30 05:00:46;;;;;;;10.10;5.63;;;;;;;21.38;85.09;99951.72;5031027;28;20084;-65
2021/08/30 05:03:11;;;;;;;8.27;5.25;;;;;;;21.07;85.58;99939.94;5031213;28;20076;-65
2021/08/30 05:05:37;;;;;;;7.07;5.18;;;;;;;20.89;85.07;99954.19;5029229;28;20045;-65
2021/08/30 05:08:03;;;;;;;5.78;4.40;;;;;;;20.44;84.06;99956.50;5031336;28;20075;-65
2021/08/30 05:10:28;;;;;;;7.47;4.47;;;;;;;20.29;83.84;99916.44;5031676;28;20030;-65
2021/08/30 05:12:53;;;;;;;7.47;4.57;;;;;;;20.43;84.45;99953.00;5033633;28;20108;-65
2021/08/30 05:15:19;;;;;;;6.70;5.10;;;;;;;20.42;84.84;99956.50;5034738;28;20465;-65
2021/08/30 05:17:45;;;;;;;6.15;4.43;;;;;;;20.52;82.53;99955.50;5034971;28;20033;-65
2021/08/30 05:20:11;;;;;;;7.60;4.00;;;;;;;20.52;81.48;99958.13;5034131;28;20029;-65
2021/08/30 05:22:36;;;;;;;10.02;3.97;;;;;;;20.15;81.47;99957.66;5035182;28;20115;-65
2021/08/30 05:25:03;;;;;;;5.53;3.83;;;;;;;20.06;81.99;99927.19;5035060;28;20131;-65
2021/08/30 05:27:29;;;;;;;5.00;3.97;;;;;;;20.35;81.45;99965.34;5034967;28;20030;-66
2021/08/30 05:29:54;;;;;;;6.43;4.10;;;;;;;20.29;81.72;99965.41;5034885;28;20029;-63
2021/08/30 05:32:21;;;;;;;7.80;3.88;;;;;;;19.98;83.07;99970.97;5035070;28;20385;-65
2021/08/30 05:34:46;;;;;;;5.38;4.03;;;;;;;20.10;83.41;99973.47;5034998;28;20042;-65
2021/08/30 05:37:11;;;;;;;8.05;5.20;;;;;;;20.05;83.87;99977.88;5034861;28;20080;-65
2021/08/30 05:39:37;;;;;;;5.75;4.20;;;;;;;19.98;83.36;99936.91;5034487;28;20459;-65
2021/08/30 05:42:03;;;;;;;7.00;4.22;;;;;;;20.20;84.04;99985.56;5034296;28;20036;-65
2021/08/30 05:44:28;;;;;;;7.03;4.93;;;;;;;20.20;84.09;99969.84;5034380;28;20028;-65
2021/08/30 05:46:53;;;;;;;6.18;4.20;;;;;;;20.26;83.67;99973.28;5034035;28;20051;-65
2021/08/30 05:49:19;;;;;;;10.15;4.90;;;;;;;20.33;82.63;99985.44;5034530;28;20094;-65
2021/08/30 05:51:46;;;;;;;5.72;3.92;;;;;;;20.40;80.35;99987.13;5034708;28;20029;-65
2021/08/30 05:54:12;;;;;;;4.07;3.30;;;;;;;20.49;75.48;99986.16;5034264;28;20029;-66
2021/08/30 05:56:37;;;;;;;5.47;3.40;;;;;;;20.56;74.76;99976.44;5034326;28;20483;-65
2021/08/30 05:59:03;;;;;;;5.70;3.20;;;;;;;20.57;73.43;99978.19;5033987;28;20075;-64
2021/08/30 06:01:28;;;;;;;6.80;3.40;;;;;;;20.46;74.30;99978.28;5033326;28;20108;-65
2021/08/30 06:03:54;;;;;;;4.75;3.60;;;;;;;20.27;75.32;99954.06;5034249;28;20403;-65
2021/08/30 06:06:19;;;;;;;6.18;3.50;;;;;;;20.40;75.95;99989.75;5034377;28;20029;-65
2021/08/30 06:08:44;;;;;;;4.90;3.38;;;;;;;20.41;76.14;99988.88;5034260;28;20412;-66
2021/08/30 06:11:10;;;;;;;5.85;3.22;;;;;;;20.44;74.96;99987.97;5034195;28;20456;-65
2021/08/30 06:13:35;;;;;;;4.10;3.13;;;;;;;20.33;74.50;99949.59;5033891;28;20447;-65
2021/08/30 06:16:01;;;;;;;5.53;3.80;;;;;;;20.62;74.73;99965.88;5031836;28;20514;-65
2021/08/30 06:18:26;;;;;;;6.30;3.58;;;;;;;20.85;75.44;99981.38;5034168;28;20112;-65
2021/08/30 06:20:52;;;;;;;7.32;3.70;;;;;;;20.72;75.27;99971.91;5033963;28;20450;-65
2021/08/30 06:23:18;;;;;;;11.20;3.55;;;;;;;20.90;75.63;99991.78;5032756;28;20385;-69
2021/08/30 06:25:44;;;;;;;9.07;3.88;;;;;;;20.56;75.05;99990.44;5033363;28;20088;-65
2021/08/30 06:28:10;;;;;;;4.40;3.53;;;;;;;20.71;76.74;99993.75;5033771;28;20407;-65
2021/08/30 06:30:35;;;;;;;4.85;3.25;;;;;;;20.92;75.37;100005.75;5033837;28;20034;-66
2021/08/30 06:33:01;;;;;;;5.03;3.65;;;;;;;21.02;75.06;100002.09;5034081;28;20026;-65
2021/08/30 06:35:26;;;;;;;4.10;3.17;;;;;;;20.97;75.68;100003.94;5033856;28;20034;-65
2021/08/30 06:37:52;;;;;;;4.68;3.85;;;;;;;21.19;74.96;100009.75;5033576;28;20025;-65
2021/08/30 06:40:19;;;;;;;8.57;3.60;;;;;;;21.10;74.04;100004.66;5033416;28;20029;-65
2021/08/30 06:42:44;;;;;;;5.03;3.28;;;;;;;21.17;73.40;100012.41;5033254;28;20029;-66
2021/08/30 06:45:10;;;;;;;5.07;3.60;;;;;;;21.41;72.20;100019.94;5033768;28;20472;-65
2021/08/30 06:47:36;;;;;;;5.00;3.15;;;;;;;21.22;72.46;100011.47;5033354;28;20030;-65
2021/08/30 06:50:03;;;;;;;6.85;2.95;;;;;;;21.25;73.39;100019.31;5033451;28;20032;-65
2021/08/30 06:52:29;;;;;;;5.40;2.88;;;;;;;21.30;71.97;100025.38;5033419;28;20078;-65
2021/08/30 06:54:54;;;;;;;8.63;3.47;;;;;;;21.12;71.65;100023.84;5033141;28;20025;-65
2021/08/30 06:57:19;;;;;;;5.10;3.10;;;;;;;20.92;72.85;100025.00;5033018;28;20021;-65
2021/08/30 06:59:45;;;;;;;5.35;3.30;;;;;;;21.29;71.97;100029.72;5011083;28;20481;-65
2021/08/30 07:02:10;;;;;;;5.47;3.05;;;;;;;21.53;71.14;100032.03;5011298;28;20125;-65
2021/08/30 07:04:36;;;;;;;5.00;2.95;;;;;;;21.59;70.51;100034.59;5011279;28;20480;-65
2021/08/30 07:07:02;;;;;;;7.97;3.42;;;;;;;21.62;71.22;100029.28;4994688;28;20046;-66
2021/08/30 07:09:28;;;;;;;6.75;3.17;;;;;;;21.76;70.54;100043.06;5011016;28;20038;-66
2021/08/30 07:11:53;;;;;;;7.38;3.15;;;;;;;21.49;69.04;100036.47;4994451;28;20061;-63
2021/08/30 07:14:19;;;;;;;4.18;3.08;;;;;;;21.44;68.99;100033.88;5010907;28;20042;-65
2021/08/30 07:16:45;;;;;;;4.95;3.20;;;;;;;21.64;69.03;100033.59;5010728;28;20112;-65
2021/08/30 07:19:11;;;;;;;5.00;3.17;;;;;;;21.77;69.35;100038.66;5011037;28;20189;-65
2021/08/30 07:21:36;;;;;;;4.80;3.40;;;;;;;21.91;68.55;100047.22;5010880;28;20050;-66
2021/08/30 07:24:02;;;;;;;6.53;3.60;;;;;;;21.89;68.39;100050.75;5010669;28;20528;-64
2021/08/30 07:26:28;;;;;;;7.30;3.70;;;;;;;21.98;70.55;100047.97;5010388;28;20169;-66
2021/08/30 07:28:53;;;;;;;5.78;3.65;;;;;;;21.94;68.39;100043.66;5010694;28;20073;-66
2021/08/30 07:31:19;;;;;;;4.60;3.80;;;;;;;22.20;68.51;100042.34;5026848;28;20120;-65
2021/08/30 07:33:44;;;;;;;5.20;3.70;;;;;;;22.20;67.56;100027.44;5033038;28;20480;-65
2021/08/30 07:36:10;;;;;;;5.43;3.60;;;;;;;22.53;66.26;100047.91;5013933;28;20042;-65
2021/08/30 07:38:35;;;;;;;5.40;3.40;;;;;;;22.27;67.62;100017.69;5032336;28;20049;-65
2021/08/30 07:41:01;;;;;;;6.20;3.78;;;;;;;22.24;67.08;100057.16;5015150;28;20104;-65
2021/08/30 07:43:27;;;;;;;5.68;4.13;;;;;;;22.05;68.46;100049.59;5012341;28;20038;-65
2021/08/30 07:45:52;;;;;;;6.18;4.40;;;;;;;21.83;68.95;100042.97;5010123;28;20052;-65
2021/08/30 07:48:18;;;;;;;7.18;4.22;;;;;;;21.76;69.00;100057.97;5012259;28;20034;-65
2021/08/30 07:50:43;;;;;;;5.50;4.07;;;;;;;21.79;69.67;100061.44;5012617;28;20091;-66
2021/08/30 07:53:09;;;;;;;8.10;4.28;;;;;;;21.75;68.71;100020.31;5010618;28;20508;-64
2021/08/30 07:55:36;;;;;;;7.93;4.65;;;;;;;22.19;69.38;100057.25;5011070;28;20022;-65
2021/08/30 07:58:03;;;;;;;5.60;4.50;;;;;;;22.37;67.57;100065.69;5012652;28;20037;-65
2021/08/30 08:00:29;;;;;;;7.30;4.22;;;;;;;22.34;69.17;100065.75;5012300;28;20455;-65
2021/08/30 08:02:54;;;;;;;5.32;4.13;;;;;;;22.54;67.07;100060.16;5012765;28;20038;-65
2021/08/30 08:05:19;;;;;;;5.32;3.92;;;;;;;22.78;66.01;100057.06;5012411;28;20049;-66
2021/08/30 08:07:45;;;;;;;6.38;4.40;;;;;;;23.01;65.68;100047.81;5012275;28;20083;-65
2021/08/30 08:10:11;;;;;;;6.20;4.15;;;;;;;22.87;65.03;100047.25;5012238;28;20030;-65
2021/08/30 08:12:36;;;;;;;6.22;3.78;;;;;;;23.01;66.73;100063.59;5012200;28;20026;-65
2021/08/30 08:15:03;;;;;;;5.38;4.20;;;;;;;23.08;66.13;100061.72;5011941;28;20034;-65
2021/08/30 08:17:29;;;;;;;6.28;4.55;;;;;;;23.10;64.37;100026.56;5009850;28;20453;-65
2021/08/30 08:19:54;;;;;;;6.15;4.22;;;;;;;23.31;64.93;100023.50;5012184;28;20029;-65
2021/08/30 08:22:20;;;;;;;5.05;4.10;;;;;;;23.45;62.47;100058.28;5012050;28;20037;-65
2021/08/30 08:24:45;;;;;;;8.45;4.18;;;;;;;23.51;64.20;100058.13;5012031;28;20058;-64
2021/08/30 08:27:11;;;;;;;5.57;4.10;;;;;;;23.65;64.30;100027.97;5011864;28;20500;-65
2021/08/30 08:29:36;;;;;;;6.60;4.22;;;;;;;24.16;63.32;100053.09;5011986;28;20378;-64
2021/08/30 08:32:02;;;;;;;8.60;4.28;;;;;;;24.39;64.39;100048.06;5012408;28;20033;-65
2021/08/30 08:34:27;;;;;;;6.00;4.50;;;;;;;24.43;63.13;100021.63;5012084;28;20026;-65
2021/08/30 08:36:59;;;;;;;8.02;4.25;;;;;;;24.63;63.01;100040.38;5011843;28;20057;-65
2021/08/30 08:39:24;;;;;;;4.80;3.72;;;;;;;24.80;61.41;100033.78;5011689;28;20018;-65
2021/08/30 08:41:49;;;;;;;4.53;3.78;;;;;;;24.87;59.30;100008.94;5011889;28;20482;-69
2021/08/30 08:44:15;;;;;;;5.20;3.92;;;;;;;25.13;57.91;100036.34;5010557;28;20476;-66
2021/08/30 08:46:41;;;;;;;5.00;3.35;;;;;;;25.31;56.51;100029.63;5012118;28;20113;-65
2021/08/30 08:49:06;;;;;;;4.63;3.75;;;;;;;25.35;56.04;100032.13;5015999;28;20033;-65
2021/08/30 08:51:33;;;;;;;6.47;3.90;;;;;;;25.03;57.57;100010.22;5015937;28;20109;-66
2021/08/30 08:53:59;;;;;;;6.28;3.75;;;;;;;25.17;56.87;100028.28;5015733;28;20021;-64
2021/08/30 08:56:27;;;;;;;5.68;3.38;;;;;;;24.83;56.36;100033.72;5015912;28;20032;-65
2021/08/30 08:58:53;;;;;;;5.40;3.47;;;;;;;24.86;57.15;100029.22;5015806;28;20025;-65
2021/08/30 09:01:27;;;;;;;6.20;3.42;;;;;;;25.04;58.29;100029.56;5015814;28;20381;-66
2021/08/30 09:03:57;;;;;;;9.25;3.53;;;;;;;25.09;56.28;100034.72;5015705;28;20065;-65
2021/08/30 09:06:34;;;;;;;10.48;4.07;;;;;;;25.27;56.69;100031.53;5015418;28;20519;-66
2021/08/30 09:09:04;;;;;;;7.32;3.80;;;;;;;25.38;55.97;100033.84;5015568;28;20457;-66
2021/08/30 09:11:43;;;;;;;8.38;4.03;;;;;;;25.43;55.94;100025.78;5015422;28;20109;-64
2021/08/30 09:14:17;;;;;;;5.68;4.00;;;;;;;25.54;55.72;100031.56;5034217;28;20427;-66
2021/08/30 09:16:43;;;;;;;11.55;4.25;;;;;;;25.73;55.53;100036.25;5034959;28;20037;-64
2021/08/30 09:19:10;;;;;;;9.25;4.22;;;;;;;25.86;55.20;100034.94;5035064;28;20021;-66
2021/08/30 09:21:42;;;;;;;14.02;4.22;;;;;;;25.99;53.91;100028.34;5035305;28;20025;-66
2021/08/30 09:24:17;;;;;;;7.60;3.70;;;;;;;26.12;54.01;100031.44;5034151;28;20419;-65
2021/08/30 09:26:51;;;;;;;8.60;3.72;;;;;;;26.20;53.18;100036.47;5034683;28;20036;-66
2021/08/30 09:29:22;;;;;;;7.82;3.55;;;;;;;26.01;53.28;100030.94;5034936;28;20083;-66
2021/08/30 09:32:10;;;;;;;7.63;3.92;;;;;;;26.24;57.63;100035.44;5034845;28;20017;-65
2021/08/30 09:34:39;;;;;;;5.65;3.35;;;;;;;26.66;53.09;100036.59;5034994;28;20091;-65
2021/08/30 09:37:13;;;;;;;6.05;3.30;;;;;;;26.64;53.47;100031.38;5034724;28;20510;-66
2021/08/30 09:39:53;;;;;;;7.70;3.60;;;;;;;26.46;52.16;100005.56;5034558;28;20029;-66
2021/08/30 09:42:19;;;;;;;9.27;3.80;;;;;;;26.80;51.46;100020.22;5034803;28;20116;-66
2021/08/30 09:44:46;;;;;;;7.43;3.35;;;;;;;26.87;51.00;100020.88;5034687;28;20029;-66
2021/08/30 09:47:17;;;;;;;7.97;3.63;;;;;;;26.47;51.32;100031.97;5031567;28;20116;-65
2021/08/30 09:49:54;;;;;;;9.10;3.50;;;;;;;26.69;51.37;100022.38;5034476;28;20025;-65
2021/08/30 09:52:21;;;;;;;5.70;3.30;;;;;;;26.89;54.00;100019.91;5034456;28;20021;-65
2021/08/30 09:54:47;;;;;;;8.73;3.50;;;;;;;26.88;51.15;100014.63;5034469;28;20106;-66
2021/08/30 09:57:14;;;;;;;9.35;3.58;;;;;;;27.14;51.85;100008.31;5034709;28;20032;-65
2021/08/30 09:59:43;;;;;;;6.63;3.28;;;;;;;27.20;51.05;100000.13;5033969;28;20060;-66
2021/08/30 10:02:11;;;;;;;8.57;3.05;;;;;;;27.18;50.56;100009.06;5034303;28;20079;-70
2021/08/30 10:04:39;;;;;;;7.60;3.30;;;;;;;27.33;52.07;100010.25;5034075;28;20030;-65
2021/08/30 10:07:06;;;;;;;6.60;3.40;;;;;;;27.53;52.13;99991.78;5034182;28;20025;-66
2021/08/30 10:09:33;;;;;;;6.75;3.05;;;;;;;27.69;49.69;99999.09;5034212;28;20033;-67
2021/08/30 10:11:58;;;;;;;7.93;3.53;;;;;;;27.66;50.51;100002.72;5034149;28;20033;-66
2021/08/30 10:14:27;;;;;;;11.90;4.38;;;;;;;27.77;54.63;99997.00;5031005;28;20082;-69
2021/08/30 10:16:55;;;;;;;7.88;4.20;;;;;;;27.89;51.65;100004.44;5032558;28;20029;-69
2021/08/30 10:19:40;;;;;;;9.68;4.53;;;;;;;28.12;50.74;99999.94;5030260;28;20037;-67
2021/08/30 10:22:19;;;;;;;12.15;4.70;;;;;;;28.32;50.01;99999.06;5031896;28;20029;-72
2021/08/30 10:24:46;;;;;;;8.40;4.40;;;;;;;28.24;51.96;99998.56;5031162;28;20479;-69
2021/08/30 10:27:14;;;;;;;5.75;3.30;;;;;;;28.32;48.21;100006.19;5030100;28;20416;-67
2021/08/30 10:29:41;;;;;;;6.68;3.35;;;;;;;28.32;47.53;99987.59;5023290;28;20033;-71
2021/08/30 10:32:20;;;;;;;8.50;6.65;;;;;;;28.59;49.74;100001.41;5024152;28;20113;-66
2021/08/30 10:34:46;;;;;;;5.68;4.53;;;;;;;28.69;49.00;99993.94;5024315;28;20393;-67
2021/08/30 10:37:20;;;;;;;8.60;3.85;;;;;;;28.82;46.50;99994.22;5022182;28;20083;-66
2021/08/30 10:39:47;;;;;;;6.75;3.70;;;;;;;28.77;48.11;100010.34;5024510;28;20025;-66
2021/08/30 10:42:14;;;;;;;7.28;4.20;;;;;;;28.80;46.01;99996.94;5032589;28;20506;-66
2021/08/30 10:45:01;;;;;;;9.68;4.45;;;;;;;28.91;47.31;100006.19;5033057;28;20033;-71
2021/08/30 10:47:34;;;;;;;10.98;4.80;;;;;;;28.30;47.03;100010.69;5031899;28;20380;-64
2021/08/30 10:50:00;;;;;;;6.05;4.35;;;;;;;28.61;47.35;99993.38;5033156;28;20025;-66
2021/08/30 10:52:36;;;;;;;6.65;4.00;;;;;;;28.91;46.68;99999.06;5033357;28;20036;-66
2021/08/30 10:55:15;;;;;;;5.55;3.88;;;;;;;28.72;46.68;99969.84;5032982;28;20025;-66
2021/08/30 10:57:47;;;;;;;6.83;4.40;;;;;;;28.73;46.49;99977.75;5033354;28;20029;-66
2021/08/30 11:00:13;;;;;;;8.65;4.05;;;;;;;28.74;46.78;100002.53;5031978;28;20017;-65
2021/08/30 11:02:41;;;;;;;4.90;3.83;;;;;;;28.99;44.66;100007.56;5032657;28;20407;-67
2021/08/30 11:05:07;;;;;;;4.95;3.75;;;;;;;28.51;47.75;100000.88;5029779;28;20032;-68
2021/08/30 11:07:34;;;;;;;10.45;4.88;;;;;;;28.41;47.79;100011.06;5032809;28;20025;-65
2021/08/30 11:10:01;;;;;;;10.27;4.85;;;;;;;28.41;48.46;100011.94;5031850;28;20037;-69
2021/08/30 11:12:26;;;;;;;8.25;4.53;;;;;;;27.97;49.09;100012.06;5032593;28;20021;-66
2021/08/30 11:14:57;;;;;;;5.32;3.65;;;;;;;28.36;47.39;100000.66;5032496;28;20521;-69
2021/08/30 11:17:27;;;;;;;9.52;4.20;;;;;;;28.84;48.00;99987.88;5032359;28;20082;-65
2021/08/30 11:19:56;;;;;;;6.50;4.00;;;;;;;29.18;46.39;99996.91;5032429;28;20048;-66
2021/08/30 11:22:23;;;;;;;5.30;3.55;;;;;;;29.49;46.19;99998.09;5032775;28;20105;-66
2021/08/30 11:24:48;;;;;;;6.10;3.65;;;;;;;29.61;45.18;99990.44;5032581;28;20057;-66
2021/08/30 11:27:20;;;;;;;6.93;3.88;;;;;;;29.72;45.45;99993.44;5032452;28;20562;-66
2021/08/30 11:29:51;;;;;;;5.10;3.75;;;;;;;29.33;46.52;99991.81;5032535;28;20120;-67
2021/08/30 11:32:18;;;;;;;8.25;3.70;;;;;;;29.41;44.26;99991.44;5030791;28;20509;-66